sensor_id;sensor_type;location;lat;lon;timestamp;temperature;humidity
22779;DHT22;11556;51.194;3.800;2023-05-27T00:02:02;11.90;99.90
22779;DHT22;11556;51.194;3.800;2023-05-27T00:04:28;11.80;99.90
22779;DHT22;11556;51.194;3.800;2023-05-27T00:06:53;11.80;99.90
22779;DHT22;11556;51.194;3.800;2023-05-27T00:09:19;11.70;99.90
22779;DHT22;11556;51.194;3.800;2023-05-27T00:11:45;11.70;99.90
22779;DHT22;11556;51.194;3.800;2023-05-27T00:14:11;11.70;99.90
22779;DHT22;11556;51.194;3.800;2023-05-27T00:16:37;11.70;99.90
22779;DHT22;11556;51.194;3.800;2023-05-27T00:19:03;11.70;99.90
22779;DHT22;11556;51.194;3.800;2023-05-27T00:21:28;11.60;99.90
22779;DHT22;11556;51.194;3.800;2023-05-27T00:23:55;11.60;99.90
22779;DHT22;11556;51.194;3.800;2023-05-27T00:26:23;11.50;99.90
22779;DHT22;11556;51.194;3.800;2023-05-27T00:28:48;11.50;99.90
22779;DHT22;11556;51.194;3.800;2023-05-27T00:31:14;11.40;99.90
22779;DHT22;11556;51.194;3.800;2023-05-27T00:33:40;11.40;99.90
22779;DHT22;11556;51.194;3.800;2023-05-27T00:36:06;11.40;99.90
22779;DHT22;11556;51.194;3.800;2023-05-27T00:38:31;11.40;99.90
22779;DHT22;11556;51.194;3.800;2023-05-27T00:41:00;11.40;99.90
22779;DHT22;11556;51.194;3.800;2023-05-27T00:43:26;11.40;99.90
22779;DHT22;11556;51.194;3.800;2023-05-27T00:45:52;11.30;99.90
22779;DHT22;11556;51.194;3.800;2023-05-27T00:48:18;11.30;99.90
22779;DHT22;11556;51.194;3.800;2023-05-27T00:50:44;11.30;99.90
22779;DHT22;11556;51.194;3.800;2023-05-27T00:53:09;11.30;99.90
22779;DHT22;11556;51.194;3.800;2023-05-27T00:55:35;11.20;99.90
22779;DHT22;11556;51.194;3.800;2023-05-27T00:58:02;11.20;99.90
22779;DHT22;11556;51.194;3.800;2023-05-27T01:00:29;11.20;99.90
22779;DHT22;11556;51.194;3.800;2023-05-27T01:02:54;11.10;99.90
22779;DHT22;11556;51.194;3.800;2023-05-27T01:05:20;11.10;99.90
22779;DHT22;11556;51.194;3.800;2023-05-27T01:08:29;11.10;99.90
22779;DHT22;11556;51.194;3.800;2023-05-27T01:10:56;11.10;99.90
22779;DHT22;11556;51.194;3.800;2023-05-27T01:13:36;11.10;99.90
22779;DHT22;11556;51.194;3.800;2023-05-27T01:16:15;11.00;99.90
22779;DHT22;11556;51.194;3.800;2023-05-27T01:18:43;11.00;99.90
22779;DHT22;11556;51.194;3.800;2023-05-27T01:21:14;10.90;99.90
22779;DHT22;11556;51.194;3.800;2023-05-27T01:23:46;10.90;99.90
22779;DHT22;11556;51.194;3.800;2023-05-27T01:26:12;10.90;99.90
22779;DHT22;11556;51.194;3.800;2023-05-27T01:28:38;10.90;99.90
22779;DHT22;11556;51.194;3.800;2023-05-27T01:31:21;10.80;99.90
22779;DHT22;11556;51.194;3.800;2023-05-27T01:34:01;10.80;99.90
22779;DHT22;11556;51.194;3.800;2023-05-27T01:36:31;10.80;99.90
22779;DHT22;11556;51.194;3.800;2023-05-27T01:39:00;10.70;99.90
22779;DHT22;11556;51.194;3.800;2023-05-27T01:41:28;10.70;99.90
22779;DHT22;11556;51.194;3.800;2023-05-27T01:43:54;10.70;99.90
22779;DHT22;11556;51.194;3.800;2023-05-27T01:46:20;10.70;99.90
22779;DHT22;11556;51.194;3.800;2023-05-27T01:48:46;10.60;99.90
22779;DHT22;11556;51.194;3.800;2023-05-27T01:51:12;10.60;99.90
22779;DHT22;11556;51.194;3.800;2023-05-27T01:53:37;10.60;99.90
22779;DHT22;11556;51.194;3.800;2023-05-27T01:56:03;10.50;99.90
22779;DHT22;11556;51.194;3.800;2023-05-27T01:58:28;10.40;99.90
22779;DHT22;11556;51.194;3.800;2023-05-27T02:00:54;10.40;99.90
22779;DHT22;11556;51.194;3.800;2023-05-27T02:03:20;10.50;99.90
22779;DHT22;11556;51.194;3.800;2023-05-27T02:05:45;10.40;99.90
22779;DHT22;11556;51.194;3.800;2023-05-27T02:08:11;10.40;99.90
22779;DHT22;11556;51.194;3.800;2023-05-27T02:10:36;10.40;99.90
22779;DHT22;11556;51.194;3.800;2023-05-27T02:13:02;10.30;99.90
22779;DHT22;11556;51.194;3.800;2023-05-27T02:15:28;10.30;99.90
22779;DHT22;11556;51.194;3.800;2023-05-27T02:17:53;10.30;99.90
22779;DHT22;11556;51.194;3.800;2023-05-27T02:20:23;10.30;99.90
22779;DHT22;11556;51.194;3.800;2023-05-27T02:22:50;10.20;99.90
22779;DHT22;11556;51.194;3.800;2023-05-27T02:25:16;10.30;99.90
22779;DHT22;11556;51.194;3.800;2023-05-27T02:27:42;10.20;99.90
22779;DHT22;11556;51.194;3.800;2023-05-27T02:30:10;10.20;99.90
22779;DHT22;11556;51.194;3.800;2023-05-27T02:32:35;10.10;99.90
22779;DHT22;11556;51.194;3.800;2023-05-27T02:35:01;10.10;99.90
22779;DHT22;11556;51.194;3.800;2023-05-27T02:37:28;10.10;99.90
22779;DHT22;11556;51.194;3.800;2023-05-27T02:39:53;10.10;99.90
22779;DHT22;11556;51.194;3.800;2023-05-27T02:42:20;10.00;99.90
22779;DHT22;11556;51.194;3.800;2023-05-27T02:44:46;10.00;99.90
22779;DHT22;11556;51.194;3.800;2023-05-27T02:47:11;9.90;99.90
22779;DHT22;11556;51.194;3.800;2023-05-27T02:49:37;9.90;99.90
22779;DHT22;11556;51.194;3.800;2023-05-27T02:52:03;9.90;99.90
22779;DHT22;11556;51.194;3.800;2023-05-27T02:54:29;9.90;99.90
22779;DHT22;11556;51.194;3.800;2023-05-27T02:56:54;9.90;99.90
22779;DHT22;11556;51.194;3.800;2023-05-27T02:59:20;9.90;99.90
22779;DHT22;11556;51.194;3.800;2023-05-27T03:01:46;9.80;99.90
22779;DHT22;11556;51.194;3.800;2023-05-27T03:04:11;9.70;99.90
22779;DHT22;11556;51.194;3.800;2023-05-27T03:06:37;9.70;99.90
22779;DHT22;11556;51.194;3.800;2023-05-27T03:09:03;9.70;99.90
22779;DHT22;11556;51.194;3.800;2023-05-27T03:11:29;9.70;99.90
22779;DHT22;11556;51.194;3.800;2023-05-27T03:13:54;9.70;99.90
22779;DHT22;11556;51.194;3.800;2023-05-27T03:16:20;9.60;99.90
22779;DHT22;11556;51.194;3.800;2023-05-27T03:18:48;9.60;99.90
22779;DHT22;11556;51.194;3.800;2023-05-27T03:21:13;9.60;99.90
22779;DHT22;11556;51.194;3.800;2023-05-27T03:23:39;9.60;99.90
22779;DHT22;11556;51.194;3.800;2023-05-27T03:26:05;9.60;99.90
22779;DHT22;11556;51.194;3.800;2023-05-27T03:28:30;9.60;99.90
22779;DHT22;11556;51.194;3.800;2023-05-27T03:30:56;9.50;99.90
22779;DHT22;11556;51.194;3.800;2023-05-27T03:33:23;9.50;99.90
22779;DHT22;11556;51.194;3.800;2023-05-27T03:35:48;9.40;99.90
22779;DHT22;11556;51.194;3.800;2023-05-27T03:38:14;9.50;99.90
22779;DHT22;11556;51.194;3.800;2023-05-27T03:40:40;9.40;99.90
22779;DHT22;11556;51.194;3.800;2023-05-27T03:43:06;9.40;99.90
22779;DHT22;11556;51.194;3.800;2023-05-27T03:45:31;9.50;99.90
22779;DHT22;11556;51.194;3.800;2023-05-27T03:47:57;9.40;99.90
22779;DHT22;11556;51.194;3.800;2023-05-27T03:50:23;9.40;99.90
22779;DHT22;11556;51.194;3.800;2023-05-27T03:52:48;9.50;99.90
22779;DHT22;11556;51.194;3.800;2023-05-27T03:55:14;9.50;99.90
22779;DHT22;11556;51.194;3.800;2023-05-27T03:57:42;9.40;99.90
22779;DHT22;11556;51.194;3.800;2023-05-27T04:00:08;9.40;99.90
22779;DHT22;11556;51.194;3.800;2023-05-27T04:02:36;9.50;99.90
22779;DHT22;11556;51.194;3.800;2023-05-27T04:05:02;9.40;99.90
22779;DHT22;11556;51.194;3.800;2023-05-27T04:07:29;9.40;99.90
22779;DHT22;11556;51.194;3.800;2023-05-27T04:09:54;9.40;99.90
22779;DHT22;11556;51.194;3.800;2023-05-27T04:12:20;9.60;99.90
22779;DHT22;11556;51.194;3.800;2023-05-27T04:14:46;9.70;99.90
22779;DHT22;11556;51.194;3.800;2023-05-27T04:17:11;9.70;99.90
22779;DHT22;11556;51.194;3.800;2023-05-27T04:19:38;9.80;99.90
22779;DHT22;11556;51.194;3.800;2023-05-27T04:22:04;9.70;99.90
22779;DHT22;11556;51.194;3.800;2023-05-27T04:24:30;9.70;99.90
22779;DHT22;11556;51.194;3.800;2023-05-27T04:26:55;9.80;99.90
22779;DHT22;11556;51.194;3.800;2023-05-27T04:29:21;9.80;99.90
22779;DHT22;11556;51.194;3.800;2023-05-27T04:31:48;9.80;99.90
22779;DHT22;11556;51.194;3.800;2023-05-27T04:34:14;9.80;99.90
22779;DHT22;11556;51.194;3.800;2023-05-27T04:36:39;9.90;99.90
22779;DHT22;11556;51.194;3.800;2023-05-27T04:39:05;10.00;99.90
22779;DHT22;11556;51.194;3.800;2023-05-27T04:41:31;9.90;99.90
22779;DHT22;11556;51.194;3.800;2023-05-27T04:43:58;10.10;99.90
22779;DHT22;11556;51.194;3.800;2023-05-27T04:46:26;10.20;99.90
22779;DHT22;11556;51.194;3.800;2023-05-27T04:48:55;10.20;99.90
22779;DHT22;11556;51.194;3.800;2023-05-27T04:51:21;10.30;99.90
22779;DHT22;11556;51.194;3.800;2023-05-27T04:53:47;10.40;99.90
22779;DHT22;11556;51.194;3.800;2023-05-27T04:56:16;10.60;99.90
22779;DHT22;11556;51.194;3.800;2023-05-27T04:58:43;10.70;99.90
22779;DHT22;11556;51.194;3.800;2023-05-27T05:01:12;10.90;99.90
22779;DHT22;11556;51.194;3.800;2023-05-27T05:03:46;11.50;99.90
22779;DHT22;11556;51.194;3.800;2023-05-27T05:06:28;12.10;99.90
22779;DHT22;11556;51.194;3.800;2023-05-27T05:08:54;12.90;99.90
22779;DHT22;11556;51.194;3.800;2023-05-27T05:11:20;13.50;99.90
22779;DHT22;11556;51.194;3.800;2023-05-27T05:13:46;14.00;99.90
22779;DHT22;11556;51.194;3.800;2023-05-27T05:16:12;14.40;99.90
22779;DHT22;11556;51.194;3.800;2023-05-27T05:18:37;14.70;99.90
22779;DHT22;11556;51.194;3.800;2023-05-27T05:21:03;14.90;99.90
22779;DHT22;11556;51.194;3.800;2023-05-27T05:23:30;15.40;99.90
22779;DHT22;11556;51.194;3.800;2023-05-27T05:25:55;15.90;99.90
22779;DHT22;11556;51.194;3.800;2023-05-27T05:28:24;16.10;99.90
22779;DHT22;11556;51.194;3.800;2023-05-27T05:30:50;16.80;99.90
22779;DHT22;11556;51.194;3.800;2023-05-27T05:33:15;17.50;99.90
22779;DHT22;11556;51.194;3.800;2023-05-27T05:35:41;17.70;99.90
22779;DHT22;11556;51.194;3.800;2023-05-27T05:38:06;18.20;99.90
22779;DHT22;11556;51.194;3.800;2023-05-27T05:40:32;18.10;99.90
22779;DHT22;11556;51.194;3.800;2023-05-27T05:42:58;17.70;99.90
22779;DHT22;11556;51.194;3.800;2023-05-27T05:45:23;18.20;99.90
22779;DHT22;11556;51.194;3.800;2023-05-27T05:47:50;18.50;99.90
22779;DHT22;11556;51.194;3.800;2023-05-27T05:50:16;18.70;99.90
22779;DHT22;11556;51.194;3.800;2023-05-27T05:52:42;18.70;99.90
22779;DHT22;11556;51.194;3.800;2023-05-27T05:55:07;18.10;99.90
22779;DHT22;11556;51.194;3.800;2023-05-27T05:57:33;18.50;99.90
22779;DHT22;11556;51.194;3.800;2023-05-27T05:59:58;17.90;99.90
22779;DHT22;11556;51.194;3.800;2023-05-27T06:02:24;17.20;99.90
22779;DHT22;11556;51.194;3.800;2023-05-27T06:04:51;17.40;99.90
22779;DHT22;11556;51.194;3.800;2023-05-27T06:07:16;18.10;99.90
22779;DHT22;11556;51.194;3.800;2023-05-27T06:09:42;19.30;99.90
22779;DHT22;11556;51.194;3.800;2023-05-27T06:12:07;19.00;99.90
22779;DHT22;11556;51.194;3.800;2023-05-27T06:14:33;18.70;99.90
22779;DHT22;11556;51.194;3.800;2023-05-27T06:17:00;19.10;99.90
22779;DHT22;11556;51.194;3.800;2023-05-27T06:19:26;19.40;99.90
22779;DHT22;11556;51.194;3.800;2023-05-27T06:21:51;20.10;99.90
22779;DHT22;11556;51.194;3.800;2023-05-27T06:24:17;21.30;97.60
22779;DHT22;11556;51.194;3.800;2023-05-27T06:26:44;21.80;95.40
22779;DHT22;11556;51.194;3.800;2023-05-27T06:29:10;22.40;93.20
22779;DHT22;11556;51.194;3.800;2023-05-27T06:31:35;23.00;91.70
22779;DHT22;11556;51.194;3.800;2023-05-27T06:34:01;23.00;90.70
22779;DHT22;11556;51.194;3.800;2023-05-27T06:36:26;23.00;88.70
22779;DHT22;11556;51.194;3.800;2023-05-27T06:38:53;23.10;86.60
22779;DHT22;11556;51.194;3.800;2023-05-27T06:41:18;22.50;88.80
22779;DHT22;11556;51.194;3.800;2023-05-27T06:43:44;22.90;87.70
22779;DHT22;11556;51.194;3.800;2023-05-27T06:46:09;23.30;84.50
22779;DHT22;11556;51.194;3.800;2023-05-27T06:48:35;23.80;82.20
22779;DHT22;11556;51.194;3.800;2023-05-27T06:51:01;22.90;82.00
22779;DHT22;11556;51.194;3.800;2023-05-27T06:53:26;22.60;85.10
22779;DHT22;11556;51.194;3.800;2023-05-27T06:55:52;22.40;87.40
22779;DHT22;11556;51.194;3.800;2023-05-27T06:58:17;22.60;84.90
22779;DHT22;11556;51.194;3.800;2023-05-27T07:00:43;23.80;82.70
22779;DHT22;11556;51.194;3.800;2023-05-27T07:03:09;24.30;79.50
22779;DHT22;11556;51.194;3.800;2023-05-27T07:05:34;23.30;79.60
22779;DHT22;11556;51.194;3.800;2023-05-27T07:08:00;23.00;82.60
22779;DHT22;11556;51.194;3.800;2023-05-27T07:10:25;23.50;82.20
22779;DHT22;11556;51.194;3.800;2023-05-27T07:12:51;24.60;78.40
22779;DHT22;11556;51.194;3.800;2023-05-27T07:15:17;25.30;75.20
22779;DHT22;11556;51.194;3.800;2023-05-27T07:17:42;25.80;72.80
22779;DHT22;11556;51.194;3.800;2023-05-27T07:20:08;25.90;70.40
22779;DHT22;11556;51.194;3.800;2023-05-27T07:22:34;25.50;70.60
22779;DHT22;11556;51.194;3.800;2023-05-27T07:25:00;25.10;70.80
22779;DHT22;11556;51.194;3.800;2023-05-27T07:27:26;24.30;74.50
22779;DHT22;11556;51.194;3.800;2023-05-27T07:29:51;24.40;75.10
22779;DHT22;11556;51.194;3.800;2023-05-27T07:32:17;23.70;75.30
22779;DHT22;11556;51.194;3.800;2023-05-27T07:34:42;23.30;78.30
22779;DHT22;11556;51.194;3.800;2023-05-27T07:37:08;22.70;79.30
22779;DHT22;11556;51.194;3.800;2023-05-27T07:39:33;22.40;81.60
22779;DHT22;11556;51.194;3.800;2023-05-27T07:41:59;21.70;82.60
22779;DHT22;11556;51.194;3.800;2023-05-27T07:44:25;21.40;85.00
22779;DHT22;11556;51.194;3.800;2023-05-27T07:46:52;21.50;84.80
22779;DHT22;11556;51.194;3.800;2023-05-27T07:49:17;21.80;83.90
22779;DHT22;11556;51.194;3.800;2023-05-27T07:51:43;21.60;85.00
22779;DHT22;11556;51.194;3.800;2023-05-27T07:54:08;21.60;86.80
22779;DHT22;11556;51.194;3.800;2023-05-27T07:56:34;22.10;83.90
22779;DHT22;11556;51.194;3.800;2023-05-27T07:59:00;22.00;86.10
22779;DHT22;11556;51.194;3.800;2023-05-27T08:01:25;23.40;82.30
22779;DHT22;11556;51.194;3.800;2023-05-27T08:03:56;24.80;76.70
22779;DHT22;11556;51.194;3.800;2023-05-27T08:06:21;25.30;73.70
22779;DHT22;11556;51.194;3.800;2023-05-27T08:08:47;25.20;73.80
22779;DHT22;11556;51.194;3.800;2023-05-27T08:11:13;25.90;70.60
22779;DHT22;11556;51.194;3.800;2023-05-27T08:13:39;26.00;70.40
22779;DHT22;11556;51.194;3.800;2023-05-27T08:16:04;25.90;68.60
22779;DHT22;11556;51.194;3.800;2023-05-27T08:18:30;25.70;67.50
22779;DHT22;11556;51.194;3.800;2023-05-27T08:20:55;25.90;67.60
22779;DHT22;11556;51.194;3.800;2023-05-27T08:23:21;26.50;65.50
22779;DHT22;11556;51.194;3.800;2023-05-27T08:25:47;26.60;64.20
22779;DHT22;11556;51.194;3.800;2023-05-27T08:28:14;25.80;66.90
22779;DHT22;11556;51.194;3.800;2023-05-27T08:30:39;24.40;67.90
22779;DHT22;11556;51.194;3.800;2023-05-27T08:33:05;25.00;69.90
22779;DHT22;11556;51.194;3.800;2023-05-27T08:35:31;25.20;68.40
22779;DHT22;11556;51.194;3.800;2023-05-27T08:37:57;26.20;66.00
22779;DHT22;11556;51.194;3.800;2023-05-27T08:40:22;26.90;64.80
22779;DHT22;11556;51.194;3.800;2023-05-27T08:42:48;26.80;64.10
22779;DHT22;11556;51.194;3.800;2023-05-27T08:45:15;26.00;65.30
22779;DHT22;11556;51.194;3.800;2023-05-27T08:47:41;25.30;67.40
22779;DHT22;11556;51.194;3.800;2023-05-27T08:50:07;26.00;65.60
22779;DHT22;11556;51.194;3.800;2023-05-27T08:52:33;25.70;65.40
22779;DHT22;11556;51.194;3.800;2023-05-27T08:55:02;25.40;66.70
22779;DHT22;11556;51.194;3.800;2023-05-27T08:57:29;26.50;64.10
22779;DHT22;11556;51.194;3.800;2023-05-27T08:59:56;27.00;61.90
22779;DHT22;11556;51.194;3.800;2023-05-27T09:02:22;27.20;61.20
22779;DHT22;11556;51.194;3.800;2023-05-27T09:04:49;27.00;61.70
22779;DHT22;11556;51.194;3.800;2023-05-27T09:07:15;27.50;59.40
22779;DHT22;11556;51.194;3.800;2023-05-27T09:09:40;27.80;58.40
22779;DHT22;11556;51.194;3.800;2023-05-27T09:12:06;28.00;57.60
22779;DHT22;11556;51.194;3.800;2023-05-27T09:14:35;28.50;57.90
22779;DHT22;11556;51.194;3.800;2023-05-27T09:17:05;28.60;57.30
22779;DHT22;11556;51.194;3.800;2023-05-27T09:19:31;28.90;56.80
22779;DHT22;11556;51.194;3.800;2023-05-27T09:21:57;28.10;56.20
22779;DHT22;11556;51.194;3.800;2023-05-27T09:24:23;26.80;57.60
22779;DHT22;11556;51.194;3.800;2023-05-27T09:26:52;26.60;58.50
22779;DHT22;11556;51.194;3.800;2023-05-27T09:29:19;26.80;59.10
22779;DHT22;11556;51.194;3.800;2023-05-27T09:31:45;26.70;58.50
22779;DHT22;11556;51.194;3.800;2023-05-27T09:34:12;27.40;59.00
22779;DHT22;11556;51.194;3.800;2023-05-27T09:36:44;28.00;56.50
22779;DHT22;11556;51.194;3.800;2023-05-27T09:39:11;27.70;58.10
22779;DHT22;11556;51.194;3.800;2023-05-27T09:41:38;28.10;56.00
22779;DHT22;11556;51.194;3.800;2023-05-27T09:44:07;27.80;57.00
22779;DHT22;11556;51.194;3.800;2023-05-27T09:46:33;27.80;56.90
22779;DHT22;11556;51.194;3.800;2023-05-27T09:48:59;28.40;56.80
22779;DHT22;11556;51.194;3.800;2023-05-27T09:51:29;27.50;55.60
22779;DHT22;11556;51.194;3.800;2023-05-27T09:53:55;27.00;58.30
22779;DHT22;11556;51.194;3.800;2023-05-27T09:56:29;27.80;56.90
22779;DHT22;11556;51.194;3.800;2023-05-27T09:58:56;27.80;56.70
22779;DHT22;11556;51.194;3.800;2023-05-27T10:01:24;27.80;56.80
22779;DHT22;11556;51.194;3.800;2023-05-27T10:03:51;28.60;55.50
22779;DHT22;11556;51.194;3.800;2023-05-27T10:06:17;29.10;53.70
22779;DHT22;11556;51.194;3.800;2023-05-27T10:08:44;28.40;55.10
22779;DHT22;11556;51.194;3.800;2023-05-27T10:11:10;28.10;55.90
22779;DHT22;11556;51.194;3.800;2023-05-27T10:13:37;28.70;54.40
22779;DHT22;11556;51.194;3.800;2023-05-27T10:16:03;28.40;54.70
22779;DHT22;11556;51.194;3.800;2023-05-27T10:18:30;28.20;55.30
22779;DHT22;11556;51.194;3.800;2023-05-27T10:21:00;28.50;54.70
22779;DHT22;11556;51.194;3.800;2023-05-27T10:23:30;28.20;55.90
22779;DHT22;11556;51.194;3.800;2023-05-27T10:31:18;28.30;55.50
22779;DHT22;11556;51.194;3.800;2023-05-27T10:33:48;28.50;54.10
22779;DHT22;11556;51.194;3.800;2023-05-27T10:36:23;29.20;54.10
22779;DHT22;11556;51.194;3.800;2023-05-27T10:38:57;28.90;54.20
22779;DHT22;11556;51.194;3.800;2023-05-27T10:41:22;28.30;54.50
22779;DHT22;11556;51.194;3.800;2023-05-27T10:43:58;28.40;53.40
22779;DHT22;11556;51.194;3.800;2023-05-27T10:46:24;28.80;55.40
22779;DHT22;11556;51.194;3.800;2023-05-27T10:48:51;28.90;56.40
22779;DHT22;11556;51.194;3.800;2023-05-27T10:51:17;29.70;53.30
22779;DHT22;11556;51.194;3.800;2023-05-27T10:53:42;30.50;53.30
22779;DHT22;11556;51.194;3.800;2023-05-27T10:56:08;29.80;51.50
22779;DHT22;11556;51.194;3.800;2023-05-27T10:58:38;28.60;53.10
22779;DHT22;11556;51.194;3.800;2023-05-27T11:01:09;28.60;54.00
22779;DHT22;11556;51.194;3.800;2023-05-27T11:03:42;29.20;54.90
22779;DHT22;11556;51.194;3.800;2023-05-27T11:06:07;29.00;53.70
22779;DHT22;11556;51.194;3.800;2023-05-27T11:08:34;29.00;53.80
22779;DHT22;11556;51.194;3.800;2023-05-27T11:11:05;29.80;53.10
22779;DHT22;11556;51.194;3.800;2023-05-27T11:15:56;30.10;52.50
22779;DHT22;11556;51.194;3.800;2023-05-27T11:18:22;30.30;52.70
22779;DHT22;11556;51.194;3.800;2023-05-27T11:20:47;29.90;52.10
22779;DHT22;11556;51.194;3.800;2023-05-27T11:23:13;29.80;53.50
22779;DHT22;11556;51.194;3.800;2023-05-27T11:25:45;30.10;52.00
22779;DHT22;11556;51.194;3.800;2023-05-27T11:28:14;30.30;51.80
22779;DHT22;11556;51.194;3.800;2023-05-27T11:30:41;30.90;51.40
22779;DHT22;11556;51.194;3.800;2023-05-27T11:33:06;30.20;51.80
22779;DHT22;11556;51.194;3.800;2023-05-27T11:35:33;30.10;52.80
22779;DHT22;11556;51.194;3.800;2023-05-27T11:37:59;31.00;51.40
22779;DHT22;11556;51.194;3.800;2023-05-27T11:40:36;30.90;50.10
22779;DHT22;11556;51.194;3.800;2023-05-27T11:43:05;31.90;49.00
22779;DHT22;11556;51.194;3.800;2023-05-27T11:45:35;31.10;48.20
22779;DHT22;11556;51.194;3.800;2023-05-27T11:48:02;30.10;50.30
22779;DHT22;11556;51.194;3.800;2023-05-27T11:50:28;30.00;49.50
22779;DHT22;11556;51.194;3.800;2023-05-27T11:53:03;29.90;50.30
22779;DHT22;11556;51.194;3.800;2023-05-27T11:55:30;29.80;48.80
22779;DHT22;11556;51.194;3.800;2023-05-27T11:57:55;30.00;50.10
22779;DHT22;11556;51.194;3.800;2023-05-27T12:00:21;29.90;50.50
22779;DHT22;11556;51.194;3.800;2023-05-27T12:02:47;30.30;50.20
22779;DHT22;11556;51.194;3.800;2023-05-27T12:05:12;31.00;48.80
22779;DHT22;11556;51.194;3.800;2023-05-27T12:07:38;31.90;47.60
22779;DHT22;11556;51.194;3.800;2023-05-27T12:10:07;31.80;47.10
22779;DHT22;11556;51.194;3.800;2023-05-27T12:12:33;30.90;47.40
22779;DHT22;11556;51.194;3.800;2023-05-27T12:15:00;31.10;47.10
22779;DHT22;11556;51.194;3.800;2023-05-27T12:17:26;31.40;47.20
22779;DHT22;11556;51.194;3.800;2023-05-27T12:19:51;30.40;47.80
22779;DHT22;11556;51.194;3.800;2023-05-27T12:22:17;30.00;48.70
22779;DHT22;11556;51.194;3.800;2023-05-27T12:24:42;30.00;48.50
22779;DHT22;11556;51.194;3.800;2023-05-27T12:27:08;30.70;47.50
22779;DHT22;11556;51.194;3.800;2023-05-27T12:29:33;30.10;48.30
22779;DHT22;11556;51.194;3.800;2023-05-27T12:32:00;30.00;48.20
22779;DHT22;11556;51.194;3.800;2023-05-27T12:34:25;30.10;49.00
22779;DHT22;11556;51.194;3.800;2023-05-27T12:36:51;29.70;49.60
22779;DHT22;11556;51.194;3.800;2023-05-27T12:39:17;29.70;49.60
22779;DHT22;11556;51.194;3.800;2023-05-27T12:41:42;29.80;50.70
22779;DHT22;11556;51.194;3.800;2023-05-27T12:44:08;30.00;49.60
22779;DHT22;11556;51.194;3.800;2023-05-27T12:46:33;30.30;50.00
22779;DHT22;11556;51.194;3.800;2023-05-27T12:48:59;30.40;49.20
22779;DHT22;11556;51.194;3.800;2023-05-27T12:51:25;30.10;48.90
22779;DHT22;11556;51.194;3.800;2023-05-27T12:53:51;30.00;48.10
22779;DHT22;11556;51.194;3.800;2023-05-27T12:56:16;30.30;48.00
22779;DHT22;11556;51.194;3.800;2023-05-27T12:58:42;29.90;48.90
22779;DHT22;11556;51.194;3.800;2023-05-27T13:01:08;30.10;48.40
22779;DHT22;11556;51.194;3.800;2023-05-27T13:03:33;30.40;46.30
22779;DHT22;11556;51.194;3.800;2023-05-27T13:05:59;30.70;45.80
22779;DHT22;11556;51.194;3.800;2023-05-27T13:08:25;30.50;47.00
22779;DHT22;11556;51.194;3.800;2023-05-27T13:10:50;30.40;45.20
22779;DHT22;11556;51.194;3.800;2023-05-27T13:13:17;30.30;46.80
22779;DHT22;11556;51.194;3.800;2023-05-27T13:15:43;30.10;47.90
22779;DHT22;11556;51.194;3.800;2023-05-27T13:18:09;30.20;48.30
22779;DHT22;11556;51.194;3.800;2023-05-27T13:20:35;30.40;48.50
22779;DHT22;11556;51.194;3.800;2023-05-27T13:23:01;30.20;45.60
22779;DHT22;11556;51.194;3.800;2023-05-27T13:25:30;29.80;46.20
22779;DHT22;11556;51.194;3.800;2023-05-27T13:27:57;29.30;47.80
22779;DHT22;11556;51.194;3.800;2023-05-27T13:30:23;29.70;46.50
22779;DHT22;11556;51.194;3.800;2023-05-27T13:32:49;30.30;45.20
22779;DHT22;11556;51.194;3.800;2023-05-27T13:35:15;30.60;43.90
22779;DHT22;11556;51.194;3.800;2023-05-27T13:37:41;30.80;44.70
22779;DHT22;11556;51.194;3.800;2023-05-27T13:40:08;29.70;44.10
22779;DHT22;11556;51.194;3.800;2023-05-27T13:42:34;28.90;46.60
22779;DHT22;11556;51.194;3.800;2023-05-27T13:45:00;28.90;48.70
22779;DHT22;11556;51.194;3.800;2023-05-27T13:47:25;28.90;49.30
22779;DHT22;11556;51.194;3.800;2023-05-27T13:49:51;28.70;49.20
22779;DHT22;11556;51.194;3.800;2023-05-27T13:52:17;28.30;49.40
22779;DHT22;11556;51.194;3.800;2023-05-27T13:54:42;27.70;51.60
22779;DHT22;11556;51.194;3.800;2023-05-27T13:57:08;27.50;53.40
22779;DHT22;11556;51.194;3.800;2023-05-27T13:59:34;27.50;53.00
22779;DHT22;11556;51.194;3.800;2023-05-27T14:01:59;27.20;53.20
22779;DHT22;11556;51.194;3.800;2023-05-27T14:04:33;26.60;55.10
22779;DHT22;11556;51.194;3.800;2023-05-27T14:06:59;27.20;55.50
22779;DHT22;11556;51.194;3.800;2023-05-27T14:09:24;27.70;54.20
22779;DHT22;11556;51.194;3.800;2023-05-27T14:11:50;28.00;53.90
22779;DHT22;11556;51.194;3.800;2023-05-27T14:14:16;27.70;52.90
22779;DHT22;11556;51.194;3.800;2023-05-27T14:16:41;27.00;53.60
22779;DHT22;11556;51.194;3.800;2023-05-27T14:19:07;26.60;55.60
22779;DHT22;11556;51.194;3.800;2023-05-27T14:21:32;26.70;56.20
22779;DHT22;11556;51.194;3.800;2023-05-27T14:23:58;26.90;54.40
22779;DHT22;11556;51.194;3.800;2023-05-27T14:26:25;27.10;53.60
22779;DHT22;11556;51.194;3.800;2023-05-27T14:28:51;27.20;54.20
22779;DHT22;11556;51.194;3.800;2023-05-27T14:31:16;27.00;54.50
22779;DHT22;11556;51.194;3.800;2023-05-27T14:33:42;26.70;55.30
22779;DHT22;11556;51.194;3.800;2023-05-27T14:36:08;26.50;57.40
22779;DHT22;11556;51.194;3.800;2023-05-27T14:38:34;26.70;56.80
22779;DHT22;11556;51.194;3.800;2023-05-27T14:40:59;26.30;56.20
22779;DHT22;11556;51.194;3.800;2023-05-27T14:43:25;25.80;58.30
22779;DHT22;11556;51.194;3.800;2023-05-27T14:45:51;25.70;59.30
22779;DHT22;11556;51.194;3.800;2023-05-27T14:48:16;25.60;58.60
22779;DHT22;11556;51.194;3.800;2023-05-27T14:50:42;25.60;59.00
22779;DHT22;11556;51.194;3.800;2023-05-27T14:53:07;26.00;58.90
22779;DHT22;11556;51.194;3.800;2023-05-27T14:55:34;25.80;58.80
22779;DHT22;11556;51.194;3.800;2023-05-27T14:58:01;25.40;60.40
22779;DHT22;11556;51.194;3.800;2023-05-27T15:00:27;25.30;60.70
22779;DHT22;11556;51.194;3.800;2023-05-27T15:02:53;25.10;60.40
22779;DHT22;11556;51.194;3.800;2023-05-27T15:05:19;24.90;61.00
22779;DHT22;11556;51.194;3.800;2023-05-27T15:07:45;24.90;61.00
22779;DHT22;11556;51.194;3.800;2023-05-27T15:10:11;25.00;61.00
22779;DHT22;11556;51.194;3.800;2023-05-27T15:15:10;25.00;61.30
22779;DHT22;11556;51.194;3.800;2023-05-27T15:17:37;24.90;61.40
22779;DHT22;11556;51.194;3.800;2023-05-27T15:20:03;24.90;62.00
22779;DHT22;11556;51.194;3.800;2023-05-27T15:22:29;24.80;61.20
22779;DHT22;11556;51.194;3.800;2023-05-27T15:24:56;24.80;61.30
22779;DHT22;11556;51.194;3.800;2023-05-27T15:27:21;24.60;61.10
22779;DHT22;11556;51.194;3.800;2023-05-27T15:29:47;24.50;62.10
22779;DHT22;11556;51.194;3.800;2023-05-27T15:32:13;24.30;62.60
22779;DHT22;11556;51.194;3.800;2023-05-27T15:34:38;24.30;62.60
22779;DHT22;11556;51.194;3.800;2023-05-27T15:37:04;24.40;62.60
22779;DHT22;11556;51.194;3.800;2023-05-27T15:39:29;24.20;62.80